sensor_id;sensor_type;location;lat;lon;timestamp;P1;durP1;ratioP1;P2;durP2;ratioP2
42098;SDS011;27758;55.900;8.516;2022-09-17T00:02:22;21.35;;;4.75;;
42098;SDS011;27758;55.900;8.516;2022-09-17T00:04:49;19.63;;;4.35;;
42098;SDS011;27758;55.900;8.516;2022-09-17T00:07:16;24.95;;;4.45;;
42098;SDS011;27758;55.900;8.516;2022-09-17T00:09:42;26.48;;;4.47;;
42098;SDS011;27758;55.900;8.516;2022-09-17T00:12:08;24.88;;;5.10;;
42098;SDS011;27758;55.900;8.516;2022-09-17T00:14:35;19.25;;;4.75;;
42098;SDS011;27758;55.900;8.516;2022-09-17T00:17:00;22.77;;;4.60;;
42098;SDS011;27758;55.900;8.516;2022-09-17T00:19:26;26.98;;;4.85;;
42098;SDS011;27758;55.900;8.516;2022-09-17T00:21:52;20.80;;;4.57;;
42098;SDS011;27758;55.900;8.516;2022-09-17T00:24:18;29.48;;;4.18;;
42098;SDS011;27758;55.900;8.516;2022-09-17T00:26:44;25.20;;;4.40;;
42098;SDS011;27758;55.900;8.516;2022-09-17T00:29:11;27.70;;;3.67;;
42098;SDS011;27758;55.900;8.516;2022-09-17T00:31:37;19.80;;;4.25;;
42098;SDS011;27758;55.900;8.516;2022-09-17T00:34:03;25.77;;;5.45;;
42098;SDS011;27758;55.900;8.516;2022-09-17T00:36:30;18.60;;;3.80;;
42098;SDS011;27758;55.900;8.516;2022-09-17T00:38:58;21.38;;;4.18;;
42098;SDS011;27758;55.900;8.516;2022-09-17T00:41:26;23.95;;;4.38;;
42098;SDS011;27758;55.900;8.516;2022-09-17T00:43:54;19.38;;;3.75;;
42098;SDS011;27758;55.900;8.516;2022-09-17T00:46:37;21.23;;;4.18;;
42098;SDS011;27758;55.900;8.516;2022-09-17T00:49:11;20.00;;;4.05;;
42098;SDS011;27758;55.900;8.516;2022-09-17T00:51:44;25.80;;;5.65;;
42098;SDS011;27758;55.900;8.516;2022-09-17T00:54:14;26.88;;;4.70;;
42098;SDS011;27758;55.900;8.516;2022-09-17T00:56:40;26.98;;;4.53;;
42098;SDS011;27758;55.900;8.516;2022-09-17T00:59:07;20.10;;;4.35;;
42098;SDS011;27758;55.900;8.516;2022-09-17T01:01:34;20.55;;;4.43;;
42098;SDS011;27758;55.900;8.516;2022-09-17T01:04:01;21.98;;;4.05;;
42098;SDS011;27758;55.900;8.516;2022-09-17T01:06:34;21.02;;;4.72;;
42098;SDS011;27758;55.900;8.516;2022-09-17T01:12:13;24.05;;;4.40;;
42098;SDS011;27758;55.900;8.516;2022-09-17T01:17:43;17.73;;;3.88;;
42098;SDS011;27758;55.900;8.516;2022-09-17T01:22:57;22.95;;;5.53;;
42098;SDS011;27758;55.900;8.516;2022-09-17T01:25:37;18.63;;;3.72;;
42098;SDS011;27758;55.900;8.516;2022-09-17T01:28:34;18.77;;;3.60;;
42098;SDS011;27758;55.900;8.516;2022-09-17T01:34:13;17.75;;;3.90;;
42098;SDS011;27758;55.900;8.516;2022-09-17T01:39:29;21.55;;;4.03;;
42098;SDS011;27758;55.900;8.516;2022-09-17T01:42:13;22.75;;;4.60;;
42098;SDS011;27758;55.900;8.516;2022-09-17T01:47:41;25.25;;;5.00;;
42098;SDS011;27758;55.900;8.516;2022-09-17T01:50:24;14.68;;;3.45;;
42098;SDS011;27758;55.900;8.516;2022-09-17T01:52:55;20.85;;;4.43;;
42098;SDS011;27758;55.900;8.516;2022-09-17T01:55:23;20.27;;;4.43;;
42098;SDS011;27758;55.900;8.516;2022-09-17T01:58:16;20.73;;;3.75;;
42098;SDS011;27758;55.900;8.516;2022-09-17T02:00:47;22.13;;;4.22;;
42098;SDS011;27758;55.900;8.516;2022-09-17T02:03:19;19.95;;;3.47;;
42098;SDS011;27758;55.900;8.516;2022-09-17T02:05:56;15.70;;;3.45;;
42098;SDS011;27758;55.900;8.516;2022-09-17T02:08:25;23.02;;;3.83;;
42098;SDS011;27758;55.900;8.516;2022-09-17T02:10:59;27.77;;;3.72;;
42098;SDS011;27758;55.900;8.516;2022-09-17T02:16:15;28.60;;;4.03;;
42098;SDS011;27758;55.900;8.516;2022-09-17T02:18:49;18.25;;;3.35;;
42098;SDS011;27758;55.900;8.516;2022-09-17T02:26:29;15.15;;;3.95;;
42098;SDS011;27758;55.900;8.516;2022-09-17T02:29:00;20.98;;;3.38;;
42098;SDS011;27758;55.900;8.516;2022-09-17T02:31:32;27.42;;;3.50;;
42098;SDS011;27758;55.900;8.516;2022-09-17T02:33:59;19.13;;;3.70;;
42098;SDS011;27758;55.900;8.516;2022-09-17T02:39:00;16.95;;;3.65;;
42098;SDS011;27758;55.900;8.516;2022-09-17T02:41:35;19.35;;;3.15;;
42098;SDS011;27758;55.900;8.516;2022-09-17T02:44:18;13.55;;;2.75;;
42098;SDS011;27758;55.900;8.516;2022-09-17T02:58:16;25.17;;;4.53;;
42098;SDS011;27758;55.900;8.516;2022-09-17T03:00:44;16.60;;;3.25;;
42098;SDS011;27758;55.900;8.516;2022-09-17T03:03:12;14.95;;;2.95;;
42098;SDS011;27758;55.900;8.516;2022-09-17T03:05:41;13.40;;;3.03;;
42098;SDS011;27758;55.900;8.516;2022-09-17T03:08:09;18.40;;;4.05;;
42098;SDS011;27758;55.900;8.516;2022-09-17T03:13:04;17.58;;;3.42;;
42098;SDS011;27758;55.900;8.516;2022-09-17T03:15:31;16.40;;;3.60;;
42098;SDS011;27758;55.900;8.516;2022-09-17T03:17:57;19.67;;;4.07;;
42098;SDS011;27758;55.900;8.516;2022-09-17T03:20:23;19.00;;;3.65;;
42098;SDS011;27758;55.900;8.516;2022-09-17T03:22:50;20.23;;;4.50;;
42098;SDS011;27758;55.900;8.516;2022-09-17T03:25:16;20.23;;;3.28;;
42098;SDS011;27758;55.900;8.516;2022-09-17T03:27:42;22.45;;;3.88;;
42098;SDS011;27758;55.900;8.516;2022-09-17T03:30:08;17.40;;;3.80;;
42098;SDS011;27758;55.900;8.516;2022-09-17T03:32:34;23.58;;;3.95;;
42098;SDS011;27758;55.900;8.516;2022-09-17T03:34:59;17.92;;;3.60;;
42098;SDS011;27758;55.900;8.516;2022-09-17T03:37:25;18.88;;;3.38;;
42098;SDS011;27758;55.900;8.516;2022-09-17T03:39:51;24.42;;;3.67;;
42098;SDS011;27758;55.900;8.516;2022-09-17T03:42:17;17.10;;;3.45;;
42098;SDS011;27758;55.900;8.516;2022-09-17T03:44:42;16.48;;;3.40;;
42098;SDS011;27758;55.900;8.516;2022-09-17T03:47:08;20.30;;;4.22;;
42098;SDS011;27758;55.900;8.516;2022-09-17T03:49:34;18.45;;;4.50;;
42098;SDS011;27758;55.900;8.516;2022-09-17T03:52:00;16.70;;;3.70;;
42098;SDS011;27758;55.900;8.516;2022-09-17T03:54:26;24.98;;;3.70;;
42098;SDS011;27758;55.900;8.516;2022-09-17T03:56:51;23.10;;;3.75;;
42098;SDS011;27758;55.900;8.516;2022-09-17T03:59:17;14.82;;;3.15;;
42098;SDS011;27758;55.900;8.516;2022-09-17T04:01:43;14.13;;;2.85;;
42098;SDS011;27758;55.900;8.516;2022-09-17T04:04:09;20.15;;;3.70;;
42098;SDS011;27758;55.900;8.516;2022-09-17T04:06:34;16.75;;;4.07;;
42098;SDS011;27758;55.900;8.516;2022-09-17T04:09:02;19.70;;;3.22;;
42098;SDS011;27758;55.900;8.516;2022-09-17T04:11:29;20.23;;;4.28;;
42098;SDS011;27758;55.900;8.516;2022-09-17T04:13:55;14.93;;;2.83;;
42098;SDS011;27758;55.900;8.516;2022-09-17T04:16:21;14.18;;;2.38;;
42098;SDS011;27758;55.900;8.516;2022-09-17T04:18:46;15.70;;;3.90;;
42098;SDS011;27758;55.900;8.516;2022-09-17T04:21:12;17.20;;;3.15;;
42098;SDS011;27758;55.900;8.516;2022-09-17T04:23:38;19.15;;;3.25;;
42098;SDS011;27758;55.900;8.516;2022-09-17T04:26:04;13.95;;;3.35;;
42098;SDS011;27758;55.900;8.516;2022-09-17T04:28:29;16.95;;;3.30;;
42098;SDS011;27758;55.900;8.516;2022-09-17T04:30:55;15.75;;;2.75;;
42098;SDS011;27758;55.900;8.516;2022-09-17T04:33:21;16.45;;;3.08;;
42098;SDS011;27758;55.900;8.516;2022-09-17T04:35:47;15.23;;;2.72;;
42098;SDS011;27758;55.900;8.516;2022-09-17T04:38:13;13.40;;;2.83;;
42098;SDS011;27758;55.900;8.516;2022-09-17T04:40:42;14.53;;;2.47;;
42098;SDS011;27758;55.900;8.516;2022-09-17T04:43:08;11.10;;;2.55;;
42098;SDS011;27758;55.900;8.516;2022-09-17T04:45:35;17.10;;;2.65;;
42098;SDS011;27758;55.900;8.516;2022-09-17T04:48:01;19.00;;;2.63;;
42098;SDS011;27758;55.900;8.516;2022-09-17T04:50:29;17.52;;;3.15;;
42098;SDS011;27758;55.900;8.516;2022-09-17T04:52:54;16.23;;;3.45;;
42098;SDS011;27758;55.900;8.516;2022-09-17T04:55:20;17.02;;;3.28;;
42098;SDS011;27758;55.900;8.516;2022-09-17T04:57:47;14.32;;;2.45;;
42098;SDS011;27758;55.900;8.516;2022-09-17T05:00:13;16.58;;;3.65;;
42098;SDS011;27758;55.900;8.516;2022-09-17T05:02:45;18.20;;;2.80;;
42098;SDS011;27758;55.900;8.516;2022-09-17T05:05:13;24.65;;;3.67;;
42098;SDS011;27758;55.900;8.516;2022-09-17T05:07:40;19.45;;;3.72;;
42098;SDS011;27758;55.900;8.516;2022-09-17T05:10:06;22.17;;;4.28;;
42098;SDS011;27758;55.900;8.516;2022-09-17T05:12:32;13.77;;;2.60;;
42098;SDS011;27758;55.900;8.516;2022-09-17T05:14:58;14.85;;;3.28;;
42098;SDS011;27758;55.900;8.516;2022-09-17T05:17:24;16.00;;;3.10;;
42098;SDS011;27758;55.900;8.516;2022-09-17T05:19:49;23.83;;;4.88;;
42098;SDS011;27758;55.900;8.516;2022-09-17T05:22:17;14.10;;;4.55;;
42098;SDS011;27758;55.900;8.516;2022-09-17T05:24:44;15.70;;;4.15;;
42098;SDS011;27758;55.900;8.516;2022-09-17T05:27:09;18.70;;;2.85;;
42098;SDS011;27758;55.900;8.516;2022-09-17T05:29:35;19.15;;;3.47;;
42098;SDS011;27758;55.900;8.516;2022-09-17T05:32:02;13.32;;;2.40;;
42098;SDS011;27758;55.900;8.516;2022-09-17T05:34:28;12.32;;;2.15;;
42098;SDS011;27758;55.900;8.516;2022-09-17T05:36:54;12.32;;;2.45;;
42098;SDS011;27758;55.900;8.516;2022-09-17T05:39:20;11.35;;;2.25;;
42098;SDS011;27758;55.900;8.516;2022-09-17T05:41:50;15.90;;;3.20;;
42098;SDS011;27758;55.900;8.516;2022-09-17T05:44:16;12.63;;;2.53;;
42098;SDS011;27758;55.900;8.516;2022-09-17T05:46:43;25.05;;;3.25;;
42098;SDS011;27758;55.900;8.516;2022-09-17T05:49:10;16.77;;;3.38;;
42098;SDS011;27758;55.900;8.516;2022-09-17T05:51:36;14.52;;;2.70;;
42098;SDS011;27758;55.900;8.516;2022-09-17T05:54:02;14.73;;;2.97;;
42098;SDS011;27758;55.900;8.516;2022-09-17T05:56:28;16.35;;;2.97;;
42098;SDS011;27758;55.900;8.516;2022-09-17T05:58:54;11.27;;;2.22;;
42098;SDS011;27758;55.900;8.516;2022-09-17T06:01:21;14.43;;;1.70;;
42098;SDS011;27758;55.900;8.516;2022-09-17T06:03:47;14.95;;;2.13;;
42098;SDS011;27758;55.900;8.516;2022-09-17T06:06:13;11.50;;;2.50;;
42098;SDS011;27758;55.900;8.516;2022-09-17T06:08:39;10.82;;;2.47;;
42098;SDS011;27758;55.900;8.516;2022-09-17T06:11:05;11.85;;;2.85;;
42098;SDS011;27758;55.900;8.516;2022-09-17T06:13:32;10.10;;;1.63;;
42098;SDS011;27758;55.900;8.516;2022-09-17T06:15:59;12.80;;;2.15;;
42098;SDS011;27758;55.900;8.516;2022-09-17T06:18:26;9.77;;;2.25;;
42098;SDS011;27758;55.900;8.516;2022-09-17T06:20:57;13.75;;;1.88;;
42098;SDS011;27758;55.900;8.516;2022-09-17T06:23:24;12.75;;;2.58;;
42098;SDS011;27758;55.900;8.516;2022-09-17T06:25:52;15.75;;;2.40;;
42098;SDS011;27758;55.900;8.516;2022-09-17T06:28:22;8.23;;;1.30;;
42098;SDS011;27758;55.900;8.516;2022-09-17T06:30:48;11.85;;;2.35;;
42098;SDS011;27758;55.900;8.516;2022-09-17T06:33:16;11.20;;;1.88;;
42098;SDS011;27758;55.900;8.516;2022-09-17T06:35:42;8.00;;;1.27;;
42098;SDS011;27758;55.900;8.516;2022-09-17T06:38:08;8.30;;;1.45;;
42098;SDS011;27758;55.900;8.516;2022-09-17T06:40:34;8.10;;;1.23;;
42098;SDS011;27758;55.900;8.516;2022-09-17T06:42:59;10.55;;;1.65;;
42098;SDS011;27758;55.900;8.516;2022-09-17T06:45:25;8.48;;;2.28;;
42098;SDS011;27758;55.900;8.516;2022-09-17T06:47:52;8.05;;;1.48;;
42098;SDS011;27758;55.900;8.516;2022-09-17T06:50:17;7.20;;;1.60;;
42098;SDS011;27758;55.900;8.516;2022-09-17T06:52:47;7.03;;;1.40;;
42098;SDS011;27758;55.900;8.516;2022-09-17T06:55:17;9.25;;;1.55;;
42098;SDS011;27758;55.900;8.516;2022-09-17T06:57:43;6.28;;;1.25;;
42098;SDS011;27758;55.900;8.516;2022-09-17T07:00:09;11.95;;;2.55;;
42098;SDS011;27758;55.900;8.516;2022-09-17T07:02:36;4.97;;;1.20;;
42098;SDS011;27758;55.900;8.516;2022-09-17T07:05:02;7.70;;;1.85;;
42098;SDS011;27758;55.900;8.516;2022-09-17T07:07:29;6.30;;;1.00;;
42098;SDS011;27758;55.900;8.516;2022-09-17T07:09:55;3.42;;;0.80;;
42098;SDS011;27758;55.900;8.516;2022-09-17T07:12:21;7.05;;;1.30;;
42098;SDS011;27758;55.900;8.516;2022-09-17T07:14:47;3.58;;;0.90;;
42098;SDS011;27758;55.900;8.516;2022-09-17T07:17:13;8.90;;;1.05;;
42098;SDS011;27758;55.900;8.516;2022-09-17T07:19:40;6.13;;;1.02;;
42098;SDS011;27758;55.900;8.516;2022-09-17T07:22:05;7.55;;;1.45;;
42098;SDS011;27758;55.900;8.516;2022-09-17T07:24:32;7.55;;;1.15;;
42098;SDS011;27758;55.900;8.516;2022-09-17T07:26:59;4.53;;;0.90;;
42098;SDS011;27758;55.900;8.516;2022-09-17T07:29:25;9.23;;;1.20;;
42098;SDS011;27758;55.900;8.516;2022-09-17T07:31:54;4.18;;;0.85;;
42098;SDS011;27758;55.900;8.516;2022-09-17T07:34:22;4.20;;;0.88;;
42098;SDS011;27758;55.900;8.516;2022-09-17T07:36:48;10.82;;;1.40;;
42098;SDS011;27758;55.900;8.516;2022-09-17T07:39:14;8.85;;;1.38;;
42098;SDS011;27758;55.900;8.516;2022-09-17T07:41:39;2.28;;;1.00;;
42098;SDS011;27758;55.900;8.516;2022-09-17T07:44:05;6.47;;;1.35;;
42098;SDS011;27758;55.900;8.516;2022-09-17T07:46:32;7.07;;;1.10;;
42098;SDS011;27758;55.900;8.516;2022-09-17T07:48:57;6.88;;;1.42;;
42098;SDS011;27758;55.900;8.516;2022-09-17T07:51:24;6.65;;;1.70;;
42098;SDS011;27758;55.900;8.516;2022-09-17T07:53:54;9.88;;;1.42;;
42098;SDS011;27758;55.900;8.516;2022-09-17T07:56:22;7.30;;;1.50;;
42098;SDS011;27758;55.900;8.516;2022-09-17T07:58:48;12.75;;;1.40;;
42098;SDS011;27758;55.900;8.516;2022-09-17T08:01:15;2.85;;;0.90;;
42098;SDS011;27758;55.900;8.516;2022-09-17T08:03:41;4.15;;;0.77;;
42098;SDS011;27758;55.900;8.516;2022-09-17T08:06:12;3.78;;;0.57;;
42098;SDS011;27758;55.900;8.516;2022-09-17T08:08:40;3.35;;;0.60;;
42098;SDS011;27758;55.900;8.516;2022-09-17T08:11:07;1.63;;;0.52;;
42098;SDS011;27758;55.900;8.516;2022-09-17T08:13:35;3.88;;;0.70;;
42098;SDS011;27758;55.900;8.516;2022-09-17T08:16:02;6.93;;;0.63;;
42098;SDS011;27758;55.900;8.516;2022-09-17T08:18:29;5.53;;;0.73;;
42098;SDS011;27758;55.900;8.516;2022-09-17T08:20:56;2.78;;;0.40;;
42098;SDS011;27758;55.900;8.516;2022-09-17T08:23:23;6.32;;;0.80;;
42098;SDS011;27758;55.900;8.516;2022-09-17T08:25:50;2.30;;;0.35;;
42098;SDS011;27758;55.900;8.516;2022-09-17T08:30:46;3.45;;;0.60;;
42098;SDS011;27758;55.900;8.516;2022-09-17T08:33:13;4.70;;;0.55;;
42098;SDS011;27758;55.900;8.516;2022-09-17T08:35:39;2.00;;;0.40;;
42098;SDS011;27758;55.900;8.516;2022-09-17T08:38:05;1.25;;;0.50;;
42098;SDS011;27758;55.900;8.516;2022-09-17T08:40:31;5.93;;;0.98;;
42098;SDS011;27758;55.900;8.516;2022-09-17T08:43:11;3.58;;;0.57;;
42098;SDS011;27758;55.900;8.516;2022-09-17T08:45:41;3.80;;;1.00;;
42098;SDS011;27758;55.900;8.516;2022-09-17T08:48:08;5.97;;;0.85;;
42098;SDS011;27758;55.900;8.516;2022-09-17T08:50:38;4.43;;;0.77;;
42098;SDS011;27758;55.900;8.516;2022-09-17T08:53:16;5.15;;;1.27;;
42098;SDS011;27758;55.900;8.516;2022-09-17T08:56:01;7.63;;;1.20;;
42098;SDS011;27758;55.900;8.516;2022-09-17T08:58:49;8.30;;;1.33;;
42098;SDS011;27758;55.900;8.516;2022-09-17T09:01:44;3.15;;;0.70;;
42098;SDS011;27758;55.900;8.516;2022-09-17T09:04:51;7.30;;;0.90;;
42098;SDS011;27758;55.900;8.516;2022-09-17T09:10:13;7.45;;;1.33;;
42098;SDS011;27758;55.900;8.516;2022-09-17T09:12:50;9.73;;;1.85;;
42098;SDS011;27758;55.900;8.516;2022-09-17T09:15:22;6.18;;;1.23;;
42098;SDS011;27758;55.900;8.516;2022-09-17T09:17:52;7.40;;;1.50;;
42098;SDS011;27758;55.900;8.516;2022-09-17T09:20:21;7.43;;;2.10;;
42098;SDS011;27758;55.900;8.516;2022-09-17T09:22:59;7.97;;;1.50;;
42098;SDS011;27758;55.900;8.516;2022-09-17T09:25:39;6.82;;;1.52;;
42098;SDS011;27758;55.900;8.516;2022-09-17T09:33:40;7.63;;;1.40;;
42098;SDS011;27758;55.900;8.516;2022-09-17T09:36:12;8.60;;;1.65;;
42098;SDS011;27758;55.900;8.516;2022-09-17T09:41:14;13.02;;;1.98;;
42098;SDS011;27758;55.900;8.516;2022-09-17T09:44:03;8.30;;;1.52;;
42098;SDS011;27758;55.900;8.516;2022-09-17T09:46:36;12.25;;;1.67;;
42098;SDS011;27758;55.900;8.516;2022-09-17T09:57:16;6.25;;;1.30;;
42098;SDS011;27758;55.900;8.516;2022-09-17T09:59:44;11.68;;;1.50;;
42098;SDS011;27758;55.900;8.516;2022-09-17T10:02:09;11.25;;;1.60;;
42098;SDS011;27758;55.900;8.516;2022-09-17T10:04:35;3.58;;;0.98;;
42098;SDS011;27758;55.900;8.516;2022-09-17T10:07:10;4.32;;;1.10;;
42098;SDS011;27758;55.900;8.516;2022-09-17T10:09:40;8.82;;;1.73;;
42098;SDS011;27758;55.900;8.516;2022-09-17T10:14:36;5.25;;;1.30;;
42098;SDS011;27758;55.900;8.516;2022-09-17T10:19:45;3.85;;;1.20;;
42098;SDS011;27758;55.900;8.516;2022-09-17T10:24:55;9.43;;;1.70;;
42098;SDS011;27758;55.900;8.516;2022-09-17T10:27:23;16.45;;;2.13;;
42098;SDS011;27758;55.900;8.516;2022-09-17T10:29:51;10.60;;;1.40;;
42098;SDS011;27758;55.900;8.516;2022-09-17T10:32:25;8.63;;;1.88;;
42098;SDS011;27758;55.900;8.516;2022-09-17T10:35:04;10.07;;;2.03;;
42098;SDS011;27758;55.900;8.516;2022-09-17T10:37:49;10.32;;;1.52;;
42098;SDS011;27758;55.900;8.516;2022-09-17T10:42:42;8.52;;;1.42;;
42098;SDS011;27758;55.900;8.516;2022-09-17T10:45:25;9.35;;;1.83;;
42098;SDS011;27758;55.900;8.516;2022-09-17T10:47:53;9.45;;;1.95;;
42098;SDS011;27758;55.900;8.516;2022-09-17T10:50:27;8.27;;;1.70;;
42098;SDS011;27758;55.900;8.516;2022-09-17T10:52:59;10.95;;;2.55;;
42098;SDS011;27758;55.900;8.516;2022-09-17T10:58:07;13.20;;;2.60;;
42098;SDS011;27758;55.900;8.516;2022-09-17T11:01:00;16.38;;;2.55;;
42098;SDS011;27758;55.900;8.516;2022-09-17T11:14:38;14.43;;;3.15;;
42098;SDS011;27758;55.900;8.516;2022-09-17T11:17:34;13.10;;;2.75;;
42098;SDS011;27758;55.900;8.516;2022-09-17T11:31:11;20.10;;;3.35;;
42098;SDS011;27758;55.900;8.516;2022-09-17T11:36:36;13.98;;;2.40;;
42098;SDS011;27758;55.900;8.516;2022-09-17T11:39:12;15.27;;;2.60;;
42098;SDS011;27758;55.900;8.516;2022-09-17T11:41:43;12.65;;;2.05;;
42098;SDS011;27758;55.900;8.516;2022-09-17T11:44:14;9.18;;;2.25;;
42098;SDS011;27758;55.900;8.516;2022-09-17T11:46:52;13.02;;;2.40;;
42098;SDS011;27758;55.900;8.516;2022-09-17T11:49:26;13.20;;;2.75;;
42098;SDS011;27758;55.900;8.516;2022-09-17T11:52:11;12.77;;;2.33;;
42098;SDS011;27758;55.900;8.516;2022-09-17T11:54:48;8.52;;;2.05;;
42098;SDS011;27758;55.900;8.516;2022-09-17T11:57:38;12.65;;;2.92;;
42098;SDS011;27758;55.900;8.516;2022-09-17T12:00:13;13.02;;;2.10;;
42098;SDS011;27758;55.900;8.516;2022-09-17T12:15:42;10.02;;;2.53;;
42098;SDS011;27758;55.900;8.516;2022-09-17T12:20:56;8.50;;;1.50;;
42098;SDS011;27758;55.900;8.516;2022-09-17T12:38:10;17.23;;;2.58;;
42098;SDS011;27758;55.900;8.516;2022-09-17T12:49:09;10.90;;;2.35;;
42098;SDS011;27758;55.900;8.516;2022-09-17T12:59:39;10.15;;;2.33;;
42098;SDS011;27758;55.900;8.516;2022-09-17T13:02:30;20.73;;;2.38;;
42098;SDS011;27758;55.900;8.516;2022-09-17T13:08:15;10.60;;;2.10;;
42098;SDS011;27758;55.900;8.516;2022-09-17T13:18:51;10.20;;;2.00;;
42098;SDS011;27758;55.900;8.516;2022-09-17T13:21:28;12.00;;;2.03;;
42098;SDS011;27758;55.900;8.516;2022-09-17T13:24:02;8.13;;;1.95;;
42098;SDS011;27758;55.900;8.516;2022-09-17T13:26:42;8.75;;;2.00;;
42098;SDS011;27758;55.900;8.516;2022-09-17T13:29:10;10.05;;;2.35;;
42098;SDS011;27758;55.900;8.516;2022-09-17T13:34:25;12.57;;;2.47;;
42098;SDS011;27758;55.900;8.516;2022-09-17T13:37:02;15.90;;;2.90;;
42098;SDS011;27758;55.900;8.516;2022-09-17T13:44:36;13.43;;;3.33;;
42098;SDS011;27758;55.900;8.516;2022-09-17T13:47:10;14.95;;;3.22;;
42098;SDS011;27758;55.900;8.516;2022-09-17T13:49:45;13.63;;;2.83;;
42098;SDS011;27758;55.900;8.516;2022-09-17T13:52:13;11.88;;;2.10;;
42098;SDS011;27758;55.900;8.516;2022-09-17T13:54:53;11.65;;;2.35;;
42098;SDS011;27758;55.900;8.516;2022-09-17T13:57:20;12.57;;;2.83;;
42098;SDS011;27758;55.900;8.516;2022-09-17T13:59:57;16.90;;;2.85;;
42098;SDS011;27758;55.900;8.516;2022-09-17T14:04:54;13.85;;;2.42;;
42098;SDS011;27758;55.900;8.516;2022-09-17T14:07:45;8.10;;;2.22;;
42098;SDS011;27758;55.900;8.516;2022-09-17T14:20:52;11.38;;;2.22;;
42098;SDS011;27758;55.900;8.516;2022-09-17T14:23:30;15.48;;;2.38;;
42098;SDS011;27758;55.900;8.516;2022-09-17T14:26:10;12.32;;;2.42;;
42098;SDS011;27758;55.900;8.516;2022-09-17T14:31:55;14.07;;;3.17;;
42098;SDS011;27758;55.900;8.516;2022-09-17T14:34:22;12.65;;;2.50;;
42098;SDS011;27758;55.900;8.516;2022-09-17T14:36:50;16.27;;;3.08;;
42098;SDS011;27758;55.900;8.516;2022-09-17T14:39:21;13.90;;;3.10;;
42098;SDS011;27758;55.900;8.516;2022-09-17T14:42:01;11.85;;;2.58;;
42098;SDS011;27758;55.900;8.516;2022-09-17T14:44:31;12.02;;;2.83;;
42098;SDS011;27758;55.900;8.516;2022-09-17T14:47:02;10.82;;;2.97;;
42098;SDS011;27758;55.900;8.516;2022-09-17T14:49:35;12.38;;;2.50;;
42098;SDS011;27758;55.900;8.516;2022-09-17T14:57:40;15.25;;;3.22;;
42098;SDS011;27758;55.900;8.516;2022-09-17T15:00:14;16.20;;;4.07;;
42098;SDS011;27758;55.900;8.516;2022-09-17T15:03:00;13.40;;;3.13;;
42098;SDS011;27758;55.900;8.516;2022-09-17T15:08:06;15.98;;;2.72;;
42098;SDS011;27758;55.900;8.516;2022-09-17T15:10:49;14.32;;;3.25;;
42098;SDS011;27758;55.900;8.516;2022-09-17T15:13:25;12.75;;;2.97;;
42098;SDS011;27758;55.900;8.516;2022-09-17T15:16:00;14.90;;;2.67;;
42098;SDS011;27758;55.900;8.516;2022-09-17T15:18:36;14.32;;;2.78;;
42098;SDS011;27758;55.900;8.516;2022-09-17T15:21:09;15.65;;;2.60;;
42098;SDS011;27758;55.900;8.516;2022-09-17T15:23:42;20.48;;;3.08;;
42098;SDS011;27758;55.900;8.516;2022-09-17T15:26:10;15.20;;;2.88;;
42098;SDS011;27758;55.900;8.516;2022-09-17T15:28:38;23.63;;;3.83;;
42098;SDS011;27758;55.900;8.516;2022-09-17T15:31:17;17.70;;;4.00;;
42098;SDS011;27758;55.900;8.516;2022-09-17T15:33:44;20.92;;;3.22;;
42098;SDS011;27758;55.900;8.516;2022-09-17T15:36:23;18.20;;;3.83;;
42098;SDS011;27758;55.900;8.516;2022-09-17T15:38:51;17.67;;;3.85;;
42098;SDS011;27758;55.900;8.516;2022-09-17T15:44:14;22.30;;;3.95;;
42098;SDS011;27758;55.900;8.516;2022-09-17T15:46:49;20.17;;;3.33;;
42098;SDS011;27758;55.900;8.516;2022-09-17T15:52:29;17.48;;;3.35;;
42098;SDS011;27758;55.900;8.516;2022-09-17T15:54:59;16.67;;;3.13;;
42098;SDS011;27758;55.900;8.516;2022-09-17T15:57:26;18.73;;;2.92;;
42098;SDS011;27758;55.900;8.516;2022-09-17T15:59:53;15.68;;;3.30;;
42098;SDS011;27758;55.900;8.516;2022-09-17T16:02:23;16.27;;;3.30;;
42098;SDS011;27758;55.900;8.516;2022-09-17T16:04:58;18.95;;;3.40;;
42098;SDS011;27758;55.900;8.516;2022-09-17T16:07:38;13.75;;;3.83;;
42098;SDS011;27758;55.900;8.516;2022-09-17T16:10:04;16.42;;;3.95;;
42098;SDS011;27758;55.900;8.516;2022-09-17T16:12:31;19.98;;;4.00;;
42098;SDS011;27758;55.900;8.516;2022-09-17T16:14:58;13.25;;;3.15;;
42098;SDS011;27758;55.900;8.516;2022-09-17T16:17:29;20.60;;;3.92;;
42098;SDS011;27758;55.900;8.516;2022-09-17T16:20:03;17.25;;;3.20;;
42098;SDS011;27758;55.900;8.516;2022-09-17T16:22:40;22.27;;;4.43;;
42098;SDS011;27758;55.900;8.516;2022-09-17T16:25:06;19.00;;;3.60;;
42098;SDS011;27758;55.900;8.516;2022-09-17T16:28:18;16.70;;;3.60;;
42098;SDS011;27758;55.900;8.516;2022-09-17T16:30:23;17.00;;;3.50;;
42098;SDS011;27758;55.900;8.516;2022-09-17T16:32:49;15.25;;;3.20;;
42098;SDS011;27758;55.900;8.516;2022-09-17T16:35:25;17.35;;;3.67;;
42098;SDS011;27758;55.900;8.516;2022-09-17T16:37:51;17.77;;;3.33;;
42098;SDS011;27758;55.900;8.516;2022-09-17T16:40:19;19.83;;;4.20;;
42098;SDS011;27758;55.900;8.516;2022-09-17T16:42:47;22.27;;;4.93;;
42098;SDS011;27758;55.900;8.516;2022-09-17T16:45:13;15.75;;;3.88;;
42098;SDS011;27758;55.900;8.516;2022-09-17T16:47:40;23.63;;;4.13;;
42098;SDS011;27758;55.900;8.516;2022-09-17T16:50:10;16.08;;;3.45;;
42098;SDS011;27758;55.900;8.516;2022-09-17T16:52:37;28.20;;;4.90;;
42098;SDS011;27758;55.900;8.516;2022-09-17T16:55:03;23.25;;;4.45;;
42098;SDS011;27758;55.900;8.516;2022-09-17T16:57:30;17.63;;;4.45;;
42098;SDS011;27758;55.900;8.516;2022-09-17T16:59:57;12.77;;;3.40;;
42098;SDS011;27758;55.900;8.516;2022-09-17T17:02:23;15.55;;;3.50;;
42098;SDS011;27758;55.900;8.516;2022-09-17T17:04:52;24.23;;;4.45;;
42098;SDS011;27758;55.900;8.516;2022-09-17T17:07:18;17.27;;;3.80;;
42098;SDS011;27758;55.900;8.516;2022-09-17T17:09:45;23.67;;;3.58;;
42098;SDS011;27758;55.900;8.516;2022-09-17T17:12:13;20.98;;;3.88;;
42098;SDS011;27758;55.900;8.516;2022-09-17T17:14:39;19.90;;;4.23;;
42098;SDS011;27758;55.900;8.516;2022-09-17T17:17:05;19.80;;;4.38;;
42098;SDS011;27758;55.900;8.516;2022-09-17T17:19:31;24.08;;;4.47;;
42098;SDS011;27758;55.900;8.516;2022-09-17T17:22:02;26.00;;;4.05;;
42098;SDS011;27758;55.900;8.516;2022-09-17T17:24:27;23.50;;;4.57;;
42098;SDS011;27758;55.900;8.516;2022-09-17T17:26:53;22.40;;;5.15;;
42098;SDS011;27758;55.900;8.516;2022-09-17T17:29:19;20.95;;;3.65;;
42098;SDS011;27758;55.900;8.516;2022-09-17T17:31:45;20.80;;;4.03;;
42098;SDS011;27758;55.900;8.516;2022-09-17T17:34:16;25.92;;;5.20;;
42098;SDS011;27758;55.900;8.516;2022-09-17T17:36:42;26.75;;;4.60;;
42098;SDS011;27758;55.900;8.516;2022-09-17T17:39:08;23.45;;;4.25;;
42098;SDS011;27758;55.900;8.516;2022-09-17T17:41:34;20.73;;;4.35;;
42098;SDS011;27758;55.900;8.516;2022-09-17T17:44:00;19.38;;;5.50;;
42098;SDS011;27758;55.900;8.516;2022-09-17T17:46:26;21.52;;;4.15;;
42098;SDS011;27758;55.900;8.516;2022-09-17T17:48:52;14.75;;;3.90;;
42098;SDS011;27758;55.900;8.516;2022-09-17T17:51:17;20.50;;;4.45;;
42098;SDS011;27758;55.900;8.516;2022-09-17T17:53:43;20.02;;;4.53;;
42098;SDS011;27758;55.900;8.516;2022-09-17T17:56:10;17.58;;;3.88;;
42098;SDS011;27758;55.900;8.516;2022-09-17T17:58:37;31.30;;;4.90;;
42098;SDS011;27758;55.900;8.516;2022-09-17T18:01:10;18.08;;;3.70;;
42098;SDS011;27758;55.900;8.516;2022-09-17T18:03:37;26.15;;;4.88;;
42098;SDS011;27758;55.900;8.516;2022-09-17T18:06:04;20.80;;;4.50;;
42098;SDS011;27758;55.900;8.516;2022-09-17T18:08:31;20.38;;;4.47;;
42098;SDS011;27758;55.900;8.516;2022-09-17T18:10:59;24.58;;;4.10;;
42098;SDS011;27758;55.900;8.516;2022-09-17T18:13:28;23.90;;;4.70;;